sensor_id;sensor_type;location;lat;lon;timestamp;temperature;humidity
42421;DHT22;28063;48.140;11.588;2022-10-31T00:01:32;12.40;99.90
42421;DHT22;28063;48.140;11.588;2022-10-31T00:03:58;12.30;99.90
42421;DHT22;28063;48.140;11.588;2022-10-31T00:06:24;12.30;99.90
42421;DHT22;28063;48.140;11.588;2022-10-31T00:08:58;12.30;99.90
42421;DHT22;28063;48.140;11.588;2022-10-31T00:11:24;12.30;99.90
42421;DHT22;28063;48.140;11.588;2022-10-31T00:13:50;12.30;99.90
42421;DHT22;28063;48.140;11.588;2022-10-31T00:16:24;12.20;99.90
42421;DHT22;28063;48.140;11.588;2022-10-31T00:18:56;12.20;99.90
42421;DHT22;28063;48.140;11.588;2022-10-31T00:21:23;12.20;99.90
42421;DHT22;28063;48.140;11.588;2022-10-31T00:23:49;12.10;99.90
42421;DHT22;28063;48.140;11.588;2022-10-31T00:26:15;12.10;99.90
42421;DHT22;28063;48.140;11.588;2022-10-31T00:28:41;12.10;99.90
42421;DHT22;28063;48.140;11.588;2022-10-31T00:31:09;12.00;99.90
42421;DHT22;28063;48.140;11.588;2022-10-31T00:33:36;12.00;99.90
42421;DHT22;28063;48.140;11.588;2022-10-31T00:36:04;12.10;99.90
42421;DHT22;28063;48.140;11.588;2022-10-31T00:38:30;12.00;99.90
42421;DHT22;28063;48.140;11.588;2022-10-31T00:40:56;12.00;99.90
42421;DHT22;28063;48.140;11.588;2022-10-31T00:43:21;12.00;99.90
42421;DHT22;28063;48.140;11.588;2022-10-31T00:45:47;11.90;99.90
42421;DHT22;28063;48.140;11.588;2022-10-31T00:48:13;12.00;99.90
42421;DHT22;28063;48.140;11.588;2022-10-31T00:50:39;11.90;99.90
42421;DHT22;28063;48.140;11.588;2022-10-31T00:53:05;11.90;99.90
42421;DHT22;28063;48.140;11.588;2022-10-31T00:55:31;11.90;99.90
42421;DHT22;28063;48.140;11.588;2022-10-31T00:57:56;11.90;99.90
42421;DHT22;28063;48.140;11.588;2022-10-31T01:00:23;11.90;99.90
42421;DHT22;28063;48.140;11.588;2022-10-31T01:02:48;11.90;99.90
42421;DHT22;28063;48.140;11.588;2022-10-31T01:05:14;11.90;99.90
42421;DHT22;28063;48.140;11.588;2022-10-31T01:07:41;11.90;99.90
42421;DHT22;28063;48.140;11.588;2022-10-31T01:10:07;11.90;99.90
42421;DHT22;28063;48.140;11.588;2022-10-31T01:12:40;11.90;99.90
42421;DHT22;28063;48.140;11.588;2022-10-31T01:15:08;11.80;99.90
42421;DHT22;28063;48.140;11.588;2022-10-31T01:17:34;11.80;99.90
42421;DHT22;28063;48.140;11.588;2022-10-31T01:19:59;11.80;99.90
42421;DHT22;28063;48.140;11.588;2022-10-31T01:22:25;11.80;99.90
42421;DHT22;28063;48.140;11.588;2022-10-31T01:24:51;11.80;99.90
42421;DHT22;28063;48.140;11.588;2022-10-31T01:27:16;11.70;99.90
42421;DHT22;28063;48.140;11.588;2022-10-31T01:29:42;11.70;99.90
42421;DHT22;28063;48.140;11.588;2022-10-31T01:32:07;11.70;99.90
42421;DHT22;28063;48.140;11.588;2022-10-31T01:34:33;11.70;99.90
42421;DHT22;28063;48.140;11.588;2022-10-31T01:36:59;11.60;99.90
42421;DHT22;28063;48.140;11.588;2022-10-31T01:39:24;11.60;99.90
42421;DHT22;28063;48.140;11.588;2022-10-31T01:41:52;11.60;99.90
42421;DHT22;28063;48.140;11.588;2022-10-31T01:46:48;11.60;99.90
42421;DHT22;28063;48.140;11.588;2022-10-31T01:49:24;11.50;99.90
42421;DHT22;28063;48.140;11.588;2022-10-31T01:52:02;11.60;99.90
42421;DHT22;28063;48.140;11.588;2022-10-31T01:54:41;11.50;99.90
42421;DHT22;28063;48.140;11.588;2022-10-31T01:57:11;11.50;99.90
42421;DHT22;28063;48.140;11.588;2022-10-31T01:59:42;11.50;99.90
42421;DHT22;28063;48.140;11.588;2022-10-31T02:02:08;11.50;99.90
42421;DHT22;28063;48.140;11.588;2022-10-31T02:04:34;11.50;99.90
42421;DHT22;28063;48.140;11.588;2022-10-31T02:07:07;11.40;99.90
42421;DHT22;28063;48.140;11.588;2022-10-31T02:09:36;11.40;99.90
42421;DHT22;28063;48.140;11.588;2022-10-31T02:12:03;11.40;99.90
42421;DHT22;28063;48.140;11.588;2022-10-31T02:14:30;11.40;99.90
42421;DHT22;28063;48.140;11.588;2022-10-31T02:16:57;11.40;99.90
42421;DHT22;28063;48.140;11.588;2022-10-31T02:35:03;11.30;99.90
42421;DHT22;28063;48.140;11.588;2022-10-31T02:37:34;11.30;99.90
42421;DHT22;28063;48.140;11.588;2022-10-31T02:40:22;11.20;99.90
42421;DHT22;28063;48.140;11.588;2022-10-31T02:43:26;11.20;99.90
42421;DHT22;28063;48.140;11.588;2022-10-31T02:46:05;11.20;99.90
42421;DHT22;28063;48.140;11.588;2022-10-31T02:48:35;11.20;99.90
42421;DHT22;28063;48.140;11.588;2022-10-31T02:51:04;11.20;99.90
42421;DHT22;28063;48.140;11.588;2022-10-31T02:53:34;11.20;99.90
42421;DHT22;28063;48.140;11.588;2022-10-31T02:56:13;11.10;99.90
42421;DHT22;28063;48.140;11.588;2022-10-31T03:01:36;11.10;99.90
42421;DHT22;28063;48.140;11.588;2022-10-31T03:04:20;11.10;99.90
42421;DHT22;28063;48.140;11.588;2022-10-31T03:13:09;11.10;99.90
42421;DHT22;28063;48.140;11.588;2022-10-31T03:15:37;11.10;99.90
42421;DHT22;28063;48.140;11.588;2022-10-31T03:18:30;11.10;99.90
42421;DHT22;28063;48.140;11.588;2022-10-31T03:21:34;11.10;99.90
42421;DHT22;28063;48.140;11.588;2022-10-31T03:23:59;11.10;99.90
42421;DHT22;28063;48.140;11.588;2022-10-31T03:26:26;11.10;99.90
42421;DHT22;28063;48.140;11.588;2022-10-31T03:29:06;11.10;99.90
42421;DHT22;28063;48.140;11.588;2022-10-31T03:31:55;11.10;99.90
42421;DHT22;28063;48.140;11.588;2022-10-31T03:34:21;11.10;99.90
42421;DHT22;28063;48.140;11.588;2022-10-31T03:36:50;11.00;99.90
42421;DHT22;28063;48.140;11.588;2022-10-31T03:39:19;11.10;99.90
42421;DHT22;28063;48.140;11.588;2022-10-31T03:41:56;11.00;99.90
42421;DHT22;28063;48.140;11.588;2022-10-31T03:44:24;11.00;99.90
42421;DHT22;28063;48.140;11.588;2022-10-31T03:46:51;11.00;99.90
42421;DHT22;28063;48.140;11.588;2022-10-31T03:49:17;11.00;99.90
42421;DHT22;28063;48.140;11.588;2022-10-31T03:54:56;10.90;99.90
42421;DHT22;28063;48.140;11.588;2022-10-31T03:57:38;10.90;99.90
42421;DHT22;28063;48.140;11.588;2022-10-31T04:00:11;10.90;99.90
42421;DHT22;28063;48.140;11.588;2022-10-31T04:02:41;10.90;99.90
42421;DHT22;28063;48.140;11.588;2022-10-31T04:05:09;10.90;99.90
42421;DHT22;28063;48.140;11.588;2022-10-31T04:07:39;10.90;99.90
42421;DHT22;28063;48.140;11.588;2022-10-31T04:10:07;10.90;99.90
42421;DHT22;28063;48.140;11.588;2022-10-31T04:12:35;10.90;99.90
42421;DHT22;28063;48.140;11.588;2022-10-31T04:15:03;10.90;99.90
42421;DHT22;28063;48.140;11.588;2022-10-31T04:17:33;10.90;99.90
42421;DHT22;28063;48.140;11.588;2022-10-31T04:20:00;10.90;99.90
42421;DHT22;28063;48.140;11.588;2022-10-31T04:22:26;11.00;99.90
42421;DHT22;28063;48.140;11.588;2022-10-31T04:24:52;11.00;99.90
42421;DHT22;28063;48.140;11.588;2022-10-31T04:27:17;11.00;99.90
42421;DHT22;28063;48.140;11.588;2022-10-31T04:29:43;11.00;99.90
42421;DHT22;28063;48.140;11.588;2022-10-31T04:32:09;11.00;99.90
42421;DHT22;28063;48.140;11.588;2022-10-31T04:34:34;11.00;99.90
42421;DHT22;28063;48.140;11.588;2022-10-31T04:37:00;10.90;99.90
42421;DHT22;28063;48.140;11.588;2022-10-31T04:39:29;10.90;99.90
42421;DHT22;28063;48.140;11.588;2022-10-31T04:41:54;10.90;99.90
42421;DHT22;28063;48.140;11.588;2022-10-31T04:44:20;10.80;99.90
42421;DHT22;28063;48.140;11.588;2022-10-31T04:46:45;10.80;99.90
42421;DHT22;28063;48.140;11.588;2022-10-31T04:49:11;10.80;99.90
42421;DHT22;28063;48.140;11.588;2022-10-31T04:51:37;10.70;99.90
42421;DHT22;28063;48.140;11.588;2022-10-31T04:54:03;10.70;99.90
42421;DHT22;28063;48.140;11.588;2022-10-31T04:56:28;10.70;99.90
42421;DHT22;28063;48.140;11.588;2022-10-31T04:58:54;10.70;99.90
42421;DHT22;28063;48.140;11.588;2022-10-31T05:01:20;10.70;99.90
42421;DHT22;28063;48.140;11.588;2022-10-31T05:03:45;10.60;99.90
42421;DHT22;28063;48.140;11.588;2022-10-31T05:06:11;10.60;99.90
42421;DHT22;28063;48.140;11.588;2022-10-31T05:08:37;10.50;99.90
42421;DHT22;28063;48.140;11.588;2022-10-31T05:11:03;10.50;99.90
42421;DHT22;28063;48.140;11.588;2022-10-31T05:13:29;10.50;99.90
42421;DHT22;28063;48.140;11.588;2022-10-31T05:15:55;10.50;99.90
42421;DHT22;28063;48.140;11.588;2022-10-31T05:18:21;10.60;99.90
42421;DHT22;28063;48.140;11.588;2022-10-31T05:20:47;10.60;99.90
42421;DHT22;28063;48.140;11.588;2022-10-31T05:23:12;10.60;99.90
42421;DHT22;28063;48.140;11.588;2022-10-31T05:25:40;10.60;99.90
42421;DHT22;28063;48.140;11.588;2022-10-31T05:28:05;10.60;99.90
42421;DHT22;28063;48.140;11.588;2022-10-31T05:30:32;10.60;99.90
42421;DHT22;28063;48.140;11.588;2022-10-31T05:32:58;10.60;99.90
42421;DHT22;28063;48.140;11.588;2022-10-31T05:35:30;10.60;99.90
42421;DHT22;28063;48.140;11.588;2022-10-31T05:37:56;10.60;99.90
42421;DHT22;28063;48.140;11.588;2022-10-31T05:40:23;10.60;99.90
42421;DHT22;28063;48.140;11.588;2022-10-31T05:42:51;10.60;99.90
42421;DHT22;28063;48.140;11.588;2022-10-31T05:45:18;10.60;99.90
42421;DHT22;28063;48.140;11.588;2022-10-31T05:47:55;10.60;99.90
42421;DHT22;28063;48.140;11.588;2022-10-31T05:50:22;10.60;99.90
42421;DHT22;28063;48.140;11.588;2022-10-31T05:52:57;10.50;99.90
42421;DHT22;28063;48.140;11.588;2022-10-31T05:55:23;10.50;99.90
42421;DHT22;28063;48.140;11.588;2022-10-31T05:57:51;10.50;99.90
42421;DHT22;28063;48.140;11.588;2022-10-31T06:00:18;10.50;99.90
42421;DHT22;28063;48.140;11.588;2022-10-31T06:02:43;10.50;99.90
42421;DHT22;28063;48.140;11.588;2022-10-31T06:05:09;10.50;99.90
42421;DHT22;28063;48.140;11.588;2022-10-31T06:07:35;10.50;99.90
42421;DHT22;28063;48.140;11.588;2022-10-31T06:10:02;10.50;99.90
42421;DHT22;28063;48.140;11.588;2022-10-31T06:12:28;10.50;99.90
42421;DHT22;28063;48.140;11.588;2022-10-31T06:14:54;10.50;99.90
42421;DHT22;28063;48.140;11.588;2022-10-31T06:17:19;10.50;99.90
42421;DHT22;28063;48.140;11.588;2022-10-31T06:19:45;10.60;99.90
42421;DHT22;28063;48.140;11.588;2022-10-31T06:22:10;10.60;99.90
42421;DHT22;28063;48.140;11.588;2022-10-31T06:24:37;10.60;99.90
42421;DHT22;28063;48.140;11.588;2022-10-31T06:27:03;10.70;99.90
42421;DHT22;28063;48.140;11.588;2022-10-31T06:29:29;10.80;99.90
42421;DHT22;28063;48.140;11.588;2022-10-31T06:31:55;10.80;99.90
42421;DHT22;28063;48.140;11.588;2022-10-31T06:34:20;10.80;99.90
42421;DHT22;28063;48.140;11.588;2022-10-31T06:36:46;10.90;99.90
42421;DHT22;28063;48.140;11.588;2022-10-31T06:39:13;10.90;99.90
42421;DHT22;28063;48.140;11.588;2022-10-31T06:41:38;10.90;99.90
42421;DHT22;28063;48.140;11.588;2022-10-31T06:44:06;11.00;99.90
42421;DHT22;28063;48.140;11.588;2022-10-31T06:46:32;11.00;99.90
42421;DHT22;28063;48.140;11.588;2022-10-31T06:48:57;11.00;99.90
42421;DHT22;28063;48.140;11.588;2022-10-31T06:51:23;11.00;99.90
42421;DHT22;28063;48.140;11.588;2022-10-31T06:53:48;11.10;99.90
42421;DHT22;28063;48.140;11.588;2022-10-31T06:56:14;11.10;99.90
42421;DHT22;28063;48.140;11.588;2022-10-31T06:58:40;11.10;99.90
42421;DHT22;28063;48.140;11.588;2022-10-31T07:01:05;11.20;99.90
42421;DHT22;28063;48.140;11.588;2022-10-31T07:03:31;11.20;99.90
42421;DHT22;28063;48.140;11.588;2022-10-31T07:05:57;11.30;99.90
42421;DHT22;28063;48.140;11.588;2022-10-31T07:08:24;11.40;99.90
42421;DHT22;28063;48.140;11.588;2022-10-31T07:10:55;11.50;99.90
42421;DHT22;28063;48.140;11.588;2022-10-31T07:13:22;11.50;99.90
42421;DHT22;28063;48.140;11.588;2022-10-31T07:15:52;11.60;99.90
42421;DHT22;28063;48.140;11.588;2022-10-31T07:18:18;11.70;99.90
42421;DHT22;28063;48.140;11.588;2022-10-31T07:20:44;12.00;99.90
42421;DHT22;28063;48.140;11.588;2022-10-31T07:23:10;12.30;99.90
42421;DHT22;28063;48.140;11.588;2022-10-31T07:25:37;13.10;99.90
42421;DHT22;28063;48.140;11.588;2022-10-31T07:28:03;13.50;99.90
42421;DHT22;28063;48.140;11.588;2022-10-31T07:30:28;13.50;99.90
42421;DHT22;28063;48.140;11.588;2022-10-31T07:32:54;13.40;99.90
42421;DHT22;28063;48.140;11.588;2022-10-31T07:35:25;13.20;99.90
42421;DHT22;28063;48.140;11.588;2022-10-31T07:37:52;13.20;99.90
42421;DHT22;28063;48.140;11.588;2022-10-31T07:40:18;13.30;99.90
42421;DHT22;28063;48.140;11.588;2022-10-31T07:42:47;14.20;99.90
42421;DHT22;28063;48.140;11.588;2022-10-31T07:45:15;15.00;98.10
42421;DHT22;28063;48.140;11.588;2022-10-31T07:50:09;15.00;95.60
42421;DHT22;28063;48.140;11.588;2022-10-31T07:52:35;14.70;95.70
42421;DHT22;28063;48.140;11.588;2022-10-31T07:55:02;14.50;95.90
42421;DHT22;28063;48.140;11.588;2022-10-31T07:57:28;14.80;96.20
42421;DHT22;28063;48.140;11.588;2022-10-31T07:59:54;15.80;95.60
42421;DHT22;28063;48.140;11.588;2022-10-31T08:02:20;16.70;92.80
42421;DHT22;28063;48.140;11.588;2022-10-31T08:04:46;16.80;91.40
42421;DHT22;28063;48.140;11.588;2022-10-31T08:07:11;16.50;91.00
42421;DHT22;28063;48.140;11.588;2022-10-31T08:09:37;16.20;91.40
42421;DHT22;28063;48.140;11.588;2022-10-31T08:12:03;15.90;91.90
42421;DHT22;28063;48.140;11.588;2022-10-31T08:14:28;15.80;92.10
42421;DHT22;28063;48.140;11.588;2022-10-31T08:16:54;15.70;92.30
42421;DHT22;28063;48.140;11.588;2022-10-31T08:19:20;15.70;92.40
42421;DHT22;28063;48.140;11.588;2022-10-31T08:21:45;15.70;92.50
42421;DHT22;28063;48.140;11.588;2022-10-31T08:24:11;15.70;92.50
42421;DHT22;28063;48.140;11.588;2022-10-31T08:26:37;15.70;92.60
42421;DHT22;28063;48.140;11.588;2022-10-31T08:29:03;15.70;92.80
42421;DHT22;28063;48.140;11.588;2022-10-31T08:31:29;15.80;92.70
42421;DHT22;28063;48.140;11.588;2022-10-31T08:33:55;16.00;92.50
42421;DHT22;28063;48.140;11.588;2022-10-31T08:36:21;16.10;92.30
42421;DHT22;28063;48.140;11.588;2022-10-31T08:38:47;16.30;92.40
42421;DHT22;28063;48.140;11.588;2022-10-31T08:41:13;16.40;92.30
42421;DHT22;28063;48.140;11.588;2022-10-31T08:43:38;16.50;92.20
42421;DHT22;28063;48.140;11.588;2022-10-31T08:46:04;16.60;92.10
42421;DHT22;28063;48.140;11.588;2022-10-31T08:48:30;16.70;92.00
42421;DHT22;28063;48.140;11.588;2022-10-31T08:50:58;16.80;91.80
42421;DHT22;28063;48.140;11.588;2022-10-31T08:53:24;17.00;91.80
42421;DHT22;28063;48.140;11.588;2022-10-31T08:55:50;17.00;91.70
42421;DHT22;28063;48.140;11.588;2022-10-31T08:58:17;17.10;91.70
42421;DHT22;28063;48.140;11.588;2022-10-31T09:00:45;17.20;91.70
42421;DHT22;28063;48.140;11.588;2022-10-31T09:03:13;17.30;91.70
42421;DHT22;28063;48.140;11.588;2022-10-31T09:05:40;17.40;91.60
42421;DHT22;28063;48.140;11.588;2022-10-31T09:08:06;17.60;91.30
42421;DHT22;28063;48.140;11.588;2022-10-31T09:10:33;17.80;90.90
42421;DHT22;28063;48.140;11.588;2022-10-31T09:13:02;17.90;90.50
42421;DHT22;28063;48.140;11.588;2022-10-31T09:15:32;18.00;90.40
42421;DHT22;28063;48.140;11.588;2022-10-31T09:17:58;18.10;90.40
42421;DHT22;28063;48.140;11.588;2022-10-31T09:20:23;18.40;89.00
42421;DHT22;28063;48.140;11.588;2022-10-31T09:22:56;18.70;87.80
42421;DHT22;28063;48.140;11.588;2022-10-31T09:25:22;19.10;86.00
42421;DHT22;28063;48.140;11.588;2022-10-31T09:27:48;19.30;84.50
42421;DHT22;28063;48.140;11.588;2022-10-31T09:30:14;19.60;83.20
42421;DHT22;28063;48.140;11.588;2022-10-31T09:32:39;19.90;81.40
42421;DHT22;28063;48.140;11.588;2022-10-31T09:35:05;20.00;79.60
42421;DHT22;28063;48.140;11.588;2022-10-31T09:37:31;19.80;78.70
42421;DHT22;28063;48.140;11.588;2022-10-31T09:39:57;19.40;79.20
42421;DHT22;28063;48.140;11.588;2022-10-31T09:43:08;19.10;80.00
42421;DHT22;28063;48.140;11.588;2022-10-31T09:45:41;18.90;78.70
42421;DHT22;28063;48.140;11.588;2022-10-31T09:51:19;18.60;79.70
42421;DHT22;28063;48.140;11.588;2022-10-31T09:54:01;18.60;79.30
42421;DHT22;28063;48.140;11.588;2022-10-31T09:56:28;18.60;79.10
42421;DHT22;28063;48.140;11.588;2022-10-31T09:58:58;18.60;78.70
42421;DHT22;28063;48.140;11.588;2022-10-31T10:01:55;18.50;78.80
42421;DHT22;28063;48.140;11.588;2022-10-31T10:04:32;18.30;78.90
42421;DHT22;28063;48.140;11.588;2022-10-31T10:07:02;18.30;79.70
42421;DHT22;28063;48.140;11.588;2022-10-31T10:09:31;18.20;79.30
42421;DHT22;28063;48.140;11.588;2022-10-31T10:12:18;18.30;79.60
42421;DHT22;28063;48.140;11.588;2022-10-31T10:25:43;19.10;77.00
42421;DHT22;28063;48.140;11.588;2022-10-31T10:28:23;19.40;75.50
42421;DHT22;28063;48.140;11.588;2022-10-31T10:33:36;19.50;74.30
42421;DHT22;28063;48.140;11.588;2022-10-31T10:36:08;19.60;73.70
42421;DHT22;28063;48.140;11.588;2022-10-31T10:38:52;19.70;73.50
42421;DHT22;28063;48.140;11.588;2022-10-31T10:41:21;19.80;73.00
42421;DHT22;28063;48.140;11.588;2022-10-31T10:43:49;20.00;72.60
42421;DHT22;28063;48.140;11.588;2022-10-31T10:49:19;20.10;71.80
42421;DHT22;28063;48.140;11.588;2022-10-31T10:59:43;20.10;69.90
42421;DHT22;28063;48.140;11.588;2022-10-31T11:02:24;20.10;69.40
42421;DHT22;28063;48.140;11.588;2022-10-31T11:04:52;20.00;68.20
42421;DHT22;28063;48.140;11.588;2022-10-31T11:07:20;20.00;68.10
42421;DHT22;28063;48.140;11.588;2022-10-31T11:09:46;20.00;68.00
42421;DHT22;28063;48.140;11.588;2022-10-31T11:12:32;20.00;67.80
42421;DHT22;28063;48.140;11.588;2022-10-31T11:15:02;20.00;67.90
42421;DHT22;28063;48.140;11.588;2022-10-31T11:17:33;20.00;67.50
42421;DHT22;28063;48.140;11.588;2022-10-31T11:22:26;19.90;68.60
42421;DHT22;28063;48.140;11.588;2022-10-31T11:24:52;20.00;68.40
42421;DHT22;28063;48.140;11.588;2022-10-31T11:27:23;20.20;67.90
42421;DHT22;28063;48.140;11.588;2022-10-31T11:29:49;20.40;67.40
42421;DHT22;28063;48.140;11.588;2022-10-31T11:32:23;20.60;67.00
42421;DHT22;28063;48.140;11.588;2022-10-31T11:34:58;20.60;66.70
42421;DHT22;28063;48.140;11.588;2022-10-31T11:37:35;20.80;66.20
42421;DHT22;28063;48.140;11.588;2022-10-31T11:40:06;20.90;65.80
42421;DHT22;28063;48.140;11.588;2022-10-31T11:42:40;21.00;65.50
42421;DHT22;28063;48.140;11.588;2022-10-31T11:47:54;21.40;64.40
42421;DHT22;28063;48.140;11.588;2022-10-31T11:52:58;21.40;62.80
42421;DHT22;28063;48.140;11.588;2022-10-31T11:55:35;21.50;62.80
42421;DHT22;28063;48.140;11.588;2022-10-31T11:58:02;21.50;62.50
42421;DHT22;28063;48.140;11.588;2022-10-31T12:00:32;21.40;62.60
42421;DHT22;28063;48.140;11.588;2022-10-31T12:03:26;21.40;62.60
42421;DHT22;28063;48.140;11.588;2022-10-31T12:08:36;21.20;62.90
42421;DHT22;28063;48.140;11.588;2022-10-31T12:26:47;20.30;66.60
42421;DHT22;28063;48.140;11.588;2022-10-31T12:31:50;20.10;67.90
42421;DHT22;28063;48.140;11.588;2022-10-31T12:56:29;20.30;69.20
42421;DHT22;28063;48.140;11.588;2022-10-31T13:02:16;20.70;68.50
42421;DHT22;28063;48.140;11.588;2022-10-31T13:05:00;20.70;68.10
42421;DHT22;28063;48.140;11.588;2022-10-31T13:08:07;20.70;68.20
42421;DHT22;28063;48.140;11.588;2022-10-31T13:10:42;20.70;68.00
42421;DHT22;28063;48.140;11.588;2022-10-31T13:13:31;20.60;68.30
42421;DHT22;28063;48.140;11.588;2022-10-31T13:16:03;20.60;69.00
42421;DHT22;28063;48.140;11.588;2022-10-31T13:18:37;20.70;68.70
42421;DHT22;28063;48.140;11.588;2022-10-31T13:21:09;20.70;68.80
42421;DHT22;28063;48.140;11.588;2022-10-31T13:23:39;20.70;69.10
42421;DHT22;28063;48.140;11.588;2022-10-31T13:26:15;20.70;69.50
42421;DHT22;28063;48.140;11.588;2022-10-31T13:28:47;20.80;69.20
42421;DHT22;28063;48.140;11.588;2022-10-31T13:31:14;20.80;69.30
42421;DHT22;28063;48.140;11.588;2022-10-31T13:33:47;20.70;69.30
42421;DHT22;28063;48.140;11.588;2022-10-31T13:44:27;20.10;71.50
42421;DHT22;28063;48.140;11.588;2022-10-31T13:46:55;19.90;71.80
42421;DHT22;28063;48.140;11.588;2022-10-31T13:54:36;19.70;73.00
42421;DHT22;28063;48.140;11.588;2022-10-31T13:57:16;19.70;73.20
42421;DHT22;28063;48.140;11.588;2022-10-31T13:59:54;19.60;73.20
42421;DHT22;28063;48.140;11.588;2022-10-31T14:02:27;19.60;73.40
42421;DHT22;28063;48.140;11.588;2022-10-31T14:05:24;19.60;73.70
42421;DHT22;28063;48.140;11.588;2022-10-31T14:07:52;19.50;73.90
42421;DHT22;28063;48.140;11.588;2022-10-31T14:10:36;19.60;74.00
42421;DHT22;28063;48.140;11.588;2022-10-31T14:13:08;19.50;74.10
42421;DHT22;28063;48.140;11.588;2022-10-31T14:15:43;19.50;74.30
42421;DHT22;28063;48.140;11.588;2022-10-31T14:18:29;19.50;74.60
42421;DHT22;28063;48.140;11.588;2022-10-31T14:20:55;19.60;74.80
42421;DHT22;28063;48.140;11.588;2022-10-31T14:23:32;19.70;75.00
42421;DHT22;28063;48.140;11.588;2022-10-31T14:28:43;19.80;76.80
42421;DHT22;28063;48.140;11.588;2022-10-31T14:33:54;19.60;78.70
42421;DHT22;28063;48.140;11.588;2022-10-31T14:39:25;19.40;82.40
42421;DHT22;28063;48.140;11.588;2022-10-31T14:42:00;19.20;83.20
42421;DHT22;28063;48.140;11.588;2022-10-31T14:44:43;19.10;84.10
42421;DHT22;28063;48.140;11.588;2022-10-31T14:52:57;18.80;90.00
42421;DHT22;28063;48.140;11.588;2022-10-31T14:55:26;18.70;90.50
42421;DHT22;28063;48.140;11.588;2022-10-31T14:58:05;18.70;90.90
42421;DHT22;28063;48.140;11.588;2022-10-31T15:00:33;18.70;91.20
42421;DHT22;28063;48.140;11.588;2022-10-31T15:03:07;18.60;91.70
42421;DHT22;28063;48.140;11.588;2022-10-31T15:05:54;18.50;92.30
42421;DHT22;28063;48.140;11.588;2022-10-31T15:08:44;18.40;92.40
42421;DHT22;28063;48.140;11.588;2022-10-31T15:13:49;18.20;94.40
42421;DHT22;28063;48.140;11.588;2022-10-31T15:16:21;18.10;95.20
42421;DHT22;28063;48.140;11.588;2022-10-31T15:19:05;18.10;95.80
42421;DHT22;28063;48.140;11.588;2022-10-31T15:21:31;18.00;96.30
42421;DHT22;28063;48.140;11.588;2022-10-31T15:23:59;17.90;96.70
42421;DHT22;28063;48.140;11.588;2022-10-31T15:26:52;17.80;97.10
42421;DHT22;28063;48.140;11.588;2022-10-31T15:29:23;17.70;97.70
42421;DHT22;28063;48.140;11.588;2022-10-31T15:32:18;17.70;98.30
42421;DHT22;28063;48.140;11.588;2022-10-31T15:34:45;17.60;99.00
42421;DHT22;28063;48.140;11.588;2022-10-31T15:37:16;17.60;99.40
42421;DHT22;28063;48.140;11.588;2022-10-31T15:39:47;17.50;99.90
42421;DHT22;28063;48.140;11.588;2022-10-31T15:45:00;17.40;99.90
42421;DHT22;28063;48.140;11.588;2022-10-31T15:47:26;17.30;99.90
42421;DHT22;28063;48.140;11.588;2022-10-31T15:49:56;17.20;99.90
42421;DHT22;28063;48.140;11.588;2022-10-31T15:52:34;17.10;99.90
42421;DHT22;28063;48.140;11.588;2022-10-31T15:57:43;16.90;99.90
42421;DHT22;28063;48.140;11.588;2022-10-31T16:00:27;16.90;99.90
42421;DHT22;28063;48.140;11.588;2022-10-31T16:06:00;16.70;99.90
42421;DHT22;28063;48.140;11.588;2022-10-31T16:10:57;16.50;99.90
42421;DHT22;28063;48.140;11.588;2022-10-31T16:13:27;16.50;99.90
42421;DHT22;28063;48.140;11.588;2022-10-31T16:15:57;16.40;99.90
42421;DHT22;28063;48.140;11.588;2022-10-31T16:18:25;16.30;99.90
42421;DHT22;28063;48.140;11.588;2022-10-31T16:20:55;16.20;99.90
42421;DHT22;28063;48.140;11.588;2022-10-31T16:23:23;16.20;99.90
42421;DHT22;28063;48.140;11.588;2022-10-31T16:25:50;16.20;99.90
42421;DHT22;28063;48.140;11.588;2022-10-31T16:28:26;16.10;99.90
42421;DHT22;28063;48.140;11.588;2022-10-31T16:30:56;16.00;99.90
42421;DHT22;28063;48.140;11.588;2022-10-31T16:33:32;15.90;99.90
42421;DHT22;28063;48.140;11.588;2022-10-31T16:38:57;15.80;99.90
42421;DHT22;28063;48.140;11.588;2022-10-31T16:41:23;15.70;99.90
42421;DHT22;28063;48.140;11.588;2022-10-31T16:43:50;15.60;99.90
42421;DHT22;28063;48.140;11.588;2022-10-31T16:46:20;15.60;99.90
42421;DHT22;28063;48.140;11.588;2022-10-31T16:48:47;15.50;99.90
42421;DHT22;28063;48.140;11.588;2022-10-31T16:51:13;15.40;99.90
42421;DHT22;28063;48.140;11.588;2022-10-31T16:53:38;15.40;99.90
42421;DHT22;28063;48.140;11.588;2022-10-31T16:56:04;15.40;99.90
42421;DHT22;28063;48.140;11.588;2022-10-31T16:58:34;15.30;99.90
42421;DHT22;28063;48.140;11.588;2022-10-31T17:01:02;15.30;99.90
42421;DHT22;28063;48.140;11.588;2022-10-31T17:03:29;15.20;99.90
42421;DHT22;28063;48.140;11.588;2022-10-31T17:05:56;15.20;99.90
42421;DHT22;28063;48.140;11.588;2022-10-31T17:08:22;15.10;99.90
42421;DHT22;28063;48.140;11.588;2022-10-31T17:10:51;15.00;99.90
42421;DHT22;28063;48.140;11.588;2022-10-31T17:13:21;14.90;99.90
42421;DHT22;28063;48.140;11.588;2022-10-31T17:15:57;14.90;99.90
42421;DHT22;28063;48.140;11.588;2022-10-31T17:18:23;14.90;99.90
42421;DHT22;28063;48.140;11.588;2022-10-31T17:20:49;14.80;99.90
42421;DHT22;28063;48.140;11.588;2022-10-31T17:23:16;14.80;99.90
42421;DHT22;28063;48.140;11.588;2022-10-31T17:25:42;14.70;99.90
42421;DHT22;28063;48.140;11.588;2022-10-31T17:28:13;14.70;99.90
42421;DHT22;28063;48.140;11.588;2022-10-31T17:30:40;14.60;99.90
42421;DHT22;28063;48.140;11.588;2022-10-31T17:33:12;14.60;99.90
42421;DHT22;28063;48.140;11.588;2022-10-31T17:35:42;14.60;99.90
42421;DHT22;28063;48.140;11.588;2022-10-31T17:38:11;14.50;99.90
42421;DHT22;28063;48.140;11.588;2022-10-31T17:40:38;14.50;99.90
42421;DHT22;28063;48.140;11.588;2022-10-31T17:43:05;14.50;99.90
42421;DHT22;28063;48.140;11.588;2022-10-31T17:45:31;14.40;99.90
42421;DHT22;28063;48.140;11.588;2022-10-31T17:47:57;14.40;99.90
42421;DHT22;28063;48.140;11.588;2022-10-31T17:50:24;14.30;99.90
42421;DHT22;28063;48.140;11.588;2022-10-31T17:52:50;14.30;99.90
42421;DHT22;28063;48.140;11.588;2022-10-31T17:55:16;14.30;99.90
42421;DHT22;28063;48.140;11.588;2022-10-31T17:57:42;14.20;99.90
42421;DHT22;28063;48.140;11.588;2022-10-31T18:00:11;14.10;99.90
42421;DHT22;28063;48.140;11.588;2022-10-31T18:02:37;14.10;99.90
42421;DHT22;28063;48.140;11.588;2022-10-31T18:05:04;14.10;99.90
42421;DHT22;28063;48.140;11.588;2022-10-31T18:07:30;14.00;99.90
42421;DHT22;28063;48.140;11.588;2022-10-31T18:09:56;14.00;99.90